createdAt,value
2023-04-25T00:01:55.705Z,7.57
2023-04-25T00:05:00.246Z,7.64
2023-04-25T00:08:05.757Z,7.58
2023-04-25T00:11:09.024Z,7.65
2023-04-25T00:14:12.224Z,7.49
2023-04-25T00:17:15.938Z,7.40
2023-04-25T00:20:19.356Z,7.87
2023-04-25T00:23:24.920Z,7.48
2023-04-25T00:26:29.126Z,7.45
2023-04-25T00:29:32.309Z,7.45
2023-04-25T00:32:35.726Z,7.29
2023-04-25T00:35:39.297Z,7.09
2023-04-25T00:38:43.917Z,7.21
2023-04-25T00:41:47.528Z,7.15
2023-04-25T00:44:52.001Z,7.17
2023-04-25T00:47:56.477Z,7.17
2023-04-25T00:51:01.004Z,7.04
2023-04-25T00:54:05.696Z,7.02
2023-04-25T00:57:09.298Z,7.08
2023-04-25T01:00:14.326Z,6.99
2023-04-25T01:03:20.764Z,6.94
2023-04-25T01:06:24.402Z,7.02
2023-04-25T01:09:29.694Z,7.10
2023-04-25T01:12:32.936Z,7.08
2023-04-25T01:15:36.919Z,7.12
2023-04-25T01:18:41.271Z,6.98
2023-04-25T01:21:46.866Z,7.09
2023-04-25T01:24:50.778Z,6.94
2023-04-25T01:27:54.347Z,6.96
2023-04-25T01:30:58.855Z,7.32
2023-04-25T01:34:02.200Z,7.17
2023-04-25T01:37:07.341Z,6.80
2023-04-25T01:40:12.361Z,6.68
2023-04-25T01:43:16.015Z,6.98
2023-04-25T01:46:19.388Z,6.79
2023-04-25T01:49:24.702Z,6.95
2023-04-25T01:52:29.338Z,7.03
2023-04-25T01:55:33.587Z,6.81
2023-04-25T01:58:44.635Z,7.01
2023-04-25T02:02:08.187Z,6.98
2023-04-25T02:05:12.957Z,6.96
2023-04-25T02:08:20.340Z,6.80
2023-04-25T02:11:23.600Z,6.54
2023-04-25T02:14:47.292Z,6.69
2023-04-25T02:18:23.227Z,6.64
2023-04-25T02:21:27.500Z,6.99
2023-04-25T02:24:32.856Z,6.25
2023-04-25T02:27:36.072Z,6.53
2023-04-25T02:30:41.334Z,6.60
2023-04-25T02:33:45.111Z,6.66
2023-04-25T02:36:48.310Z,6.37
2023-04-25T02:39:55.964Z,6.57
2023-04-25T02:42:59.238Z,6.48
2023-04-25T02:46:03.460Z,6.44
2023-04-25T02:49:07.069Z,6.46
2023-04-25T02:52:11.628Z,6.30
2023-04-25T02:55:16.558Z,6.35
2023-04-25T02:58:20.649Z,6.44
2023-04-25T03:01:26.871Z,6.34
2023-04-25T03:04:30.204Z,6.32
2023-04-25T03:07:33.438Z,6.20
2023-04-25T03:10:38.023Z,6.34
2023-04-25T03:13:43.439Z,6.52
2023-04-25T03:16:47.664Z,6.34
2023-04-25T03:19:50.825Z,6.22
2023-04-25T03:22:55.198Z,6.06
2023-04-25T03:25:59.805Z,6.41
2023-04-25T03:29:03.014Z,6.15
2023-04-25T03:34:51.658Z,6.42
2023-04-25T03:37:55.028Z,6.23
2023-04-25T03:41:04.347Z,6.15
2023-04-25T03:44:25.123Z,6.17
2023-04-25T03:47:28.674Z,5.77
2023-04-25T03:50:34.406Z,6.14
2023-04-25T03:53:38.039Z,6.76
2023-04-25T03:56:56.510Z,5.98
2023-04-25T04:00:04.456Z,6.14
2023-04-25T04:03:16.781Z,5.99
2023-04-25T04:06:22.099Z,6.06
2023-04-25T04:09:31.288Z,5.91
2023-04-25T04:12:36.462Z,6.29
2023-04-25T04:15:39.808Z,6.25
2023-04-25T04:18:43.312Z,6.20
2023-04-25T04:21:47.893Z,6.28
2023-04-25T04:24:51.586Z,6.21
2023-04-25T04:28:27.682Z,6.22
2023-04-25T04:31:38.749Z,6.34
2023-04-25T04:34:43.514Z,6.42
2023-04-25T04:37:51.519Z,6.46
2023-04-25T04:40:56.862Z,6.54
2023-04-25T04:44:17.337Z,6.49
2023-04-25T04:47:42.546Z,6.20
2023-04-25T04:50:55.761Z,6.57
2023-04-25T04:54:20.606Z,6.56
2023-04-25T04:57:47.183Z,6.67
2023-04-25T05:01:09.805Z,6.57
2023-04-25T05:04:31.540Z,6.69
2023-04-25T05:07:42.886Z,6.68
2023-04-25T05:11:23.238Z,6.69
2023-04-25T05:14:46.750Z,6.77
2023-04-25T05:18:08.742Z,6.69
2023-04-25T05:21:32.349Z,6.25
2023-04-25T05:25:06.547Z,6.50
2023-04-25T05:28:27.871Z,6.73
2023-04-25T05:31:50.188Z,6.72
2023-04-25T05:34:54.375Z,6.82
2023-04-25T05:38:13.574Z,6.74
2023-04-25T05:41:48.823Z,6.83
2023-04-25T05:45:16.326Z,6.74
2023-04-25T05:48:43.220Z,6.56
2023-04-25T05:51:57.982Z,6.91
2023-04-25T05:55:33.181Z,6.82
2023-04-25T05:58:39.702Z,6.81
2023-04-25T06:01:44.661Z,6.91
2023-04-25T06:04:48.114Z,6.89
2023-04-25T06:07:52.531Z,6.74
2023-04-25T06:10:55.843Z,6.91
2023-04-25T06:14:00.122Z,6.90
2023-04-25T06:17:07.502Z,7.05
2023-04-25T06:20:11.900Z,6.92
2023-04-25T06:23:17.132Z,6.98
2023-04-25T06:26:28.635Z,6.94
2023-04-25T06:29:31.843Z,6.97
2023-04-25T06:32:36.508Z,6.97
2023-04-25T06:35:40.679Z,6.82
2023-04-25T06:38:48.058Z,6.91
2023-04-25T06:41:51.595Z,6.85
2023-04-25T06:45:14.793Z,6.25
2023-04-25T06:48:19.807Z,6.49
2023-04-25T06:51:25.324Z,6.32
2023-04-25T06:54:30.806Z,6.77
2023-04-25T06:57:42.725Z,6.47
2023-04-25T07:01:12.055Z,6.45
2023-04-25T07:04:17.305Z,6.37
2023-04-25T07:07:30.724Z,6.56
2023-04-25T07:10:36.131Z,6.53
2023-04-25T07:13:40.295Z,6.61
2023-04-25T07:16:43.928Z,6.91
2023-04-25T07:19:49.028Z,6.93
2023-04-25T07:22:52.248Z,6.83
2023-04-25T07:25:56.832Z,7.32
2023-04-25T07:29:02.433Z,7.07
2023-04-25T07:32:06.124Z,7.19
2023-04-25T07:35:12.677Z,6.87
2023-04-25T07:38:15.970Z,6.69
2023-04-25T07:41:19.486Z,6.49
2023-04-25T07:44:23.297Z,6.52
2023-04-25T07:47:26.798Z,6.43
2023-04-25T07:50:31.783Z,6.65
2023-04-25T07:53:36.718Z,6.21
2023-04-25T07:56:52.224Z,6.14
2023-04-25T07:59:57.142Z,6.38
2023-04-25T08:03:00.736Z,6.48
2023-04-25T08:06:08.183Z,6.00
2023-04-25T08:09:18.698Z,5.73
2023-04-25T08:12:23.552Z,5.66
2023-04-25T08:15:27.694Z,5.18
2023-04-25T08:18:31.818Z,5.84
2023-04-25T08:21:36.801Z,5.66
2023-04-25T08:24:43.473Z,5.97
2023-04-25T08:27:46.735Z,5.82
2023-04-25T08:30:50.161Z,5.95
2023-04-25T08:33:54.730Z,6.51
2023-04-25T08:37:07.186Z,6.17
2023-04-25T08:40:17.751Z,6.50
2023-04-25T08:43:21.986Z,6.27
2023-04-25T08:46:25.819Z,6.79
2023-04-25T08:49:48.102Z,7.34
2023-04-25T08:52:56.368Z,7.55
2023-04-25T08:56:02.656Z,6.93
2023-04-25T08:59:08.957Z,7.17
2023-04-25T09:02:15.630Z,7.30
2023-04-25T09:05:21.748Z,8.21
2023-04-25T09:08:30.096Z,7.65
2023-04-25T09:11:34.554Z,7.48
2023-04-25T09:14:41.404Z,6.87
2023-04-25T09:17:58.568Z,7.35
2023-04-25T09:21:14.190Z,6.96
2023-04-25T09:24:35.393Z,7.33
2023-04-25T09:27:50.877Z,7.44
2023-04-25T09:34:52.984Z,8.85
2023-04-25T09:37:58.114Z,8.60
2023-04-25T09:41:25.548Z,8.53
2023-04-25T09:44:30.994Z,9.03
2023-04-25T09:47:39.741Z,9.22
2023-04-25T09:50:46.320Z,9.16
2023-04-25T09:53:52.182Z,8.76
2023-04-25T09:57:18.169Z,8.41
2023-04-25T10:00:23.402Z,8.44
2023-04-25T10:03:27.907Z,8.28
2023-04-25T10:06:46.013Z,8.02
2023-04-25T10:09:51.778Z,8.72
2023-04-25T10:12:56.179Z,8.61
2023-04-25T10:15:59.781Z,7.88
2023-04-25T10:19:04.037Z,8.41
2023-04-25T10:22:16.838Z,8.89
2023-04-25T10:25:20.370Z,8.97
2023-04-25T10:28:23.539Z,8.98
2023-04-25T10:31:26.941Z,8.94
2023-04-25T10:34:41.874Z,9.10
2023-04-25T10:38:01.237Z,9.24
2023-04-25T10:41:09.950Z,9.56
2023-04-25T10:44:13.697Z,9.21
2023-04-25T10:47:36.954Z,9.20
2023-04-25T10:50:41.454Z,9.32
2023-04-25T10:53:48.012Z,10.10
2023-04-25T10:56:54.182Z,10.86
2023-04-25T11:00:01.378Z,10.69
2023-04-25T11:03:05.997Z,10.98
2023-04-25T11:06:17.516Z,10.27
2023-04-25T11:09:26.257Z,10.18
2023-04-25T11:12:29.525Z,9.69
2023-04-25T11:15:32.832Z,10.09
2023-04-25T11:18:36.153Z,10.91
2023-04-25T11:21:39.504Z,10.13
2023-04-25T11:24:44.142Z,10.81
2023-04-25T11:27:54.004Z,9.69
2023-04-25T11:30:58.034Z,9.97
2023-04-25T11:34:01.602Z,9.91
2023-04-25T11:37:05.256Z,10.25
2023-04-25T11:40:12.487Z,9.87
2023-04-25T11:43:16.357Z,9.86
2023-04-25T11:46:21.163Z,10.13
2023-04-25T11:49:25.870Z,9.64
2023-04-25T11:52:41.391Z,10.22
2023-04-25T11:55:46.267Z,10.73
2023-04-25T11:59:07.988Z,11.41
2023-04-25T12:02:12.503Z,11.75
2023-04-25T12:05:31.195Z,11.12
2023-04-25T12:08:35.905Z,10.24
2023-04-25T12:11:47.919Z,10.84
2023-04-25T12:14:51.204Z,11.14
2023-04-25T12:17:56.209Z,10.94
2023-04-25T12:21:01.040Z,9.96
2023-04-25T12:24:13.297Z,10.76
2023-04-25T12:27:19.638Z,10.66
2023-04-25T12:30:23.034Z,10.85
2023-04-25T12:33:27.109Z,10.70
2023-04-25T12:36:30.269Z,10.42
2023-04-25T12:39:33.594Z,10.85
2023-04-25T12:42:38.189Z,10.58
2023-04-25T12:45:41.849Z,10.33
2023-04-25T12:48:45.068Z,10.48
2023-04-25T12:51:49.015Z,9.90
2023-04-25T12:54:52.322Z,10.65
2023-04-25T12:57:56.916Z,10.44
2023-04-25T13:01:00.182Z,10.53
2023-04-25T13:04:03.581Z,10.53
2023-04-25T13:07:07.195Z,9.73
2023-04-25T13:10:11.626Z,10.06
2023-04-25T13:13:17.506Z,10.12
2023-04-25T13:16:21.982Z,10.32
2023-04-25T13:19:26.607Z,10.59
2023-04-25T13:22:29.989Z,10.31
2023-04-25T13:25:33.341Z,10.24
2023-04-25T13:28:37.975Z,10.22
2023-04-25T13:31:41.293Z,10.24
2023-04-25T13:34:44.526Z,10.37
2023-04-25T13:37:47.795Z,10.44
2023-04-25T13:40:53.116Z,10.37
2023-04-25T13:43:57.707Z,10.06
2023-04-25T13:47:01.848Z,10.31
2023-04-25T13:50:11.761Z,10.29
2023-04-25T13:53:15.488Z,8.24
2023-04-25T13:56:20.583Z,9.87
2023-04-25T13:59:25.109Z,9.45
2023-04-25T14:02:28.393Z,9.72
2023-04-25T14:05:31.763Z,9.09
2023-04-25T14:08:34.940Z,10.03
2023-04-25T14:11:38.486Z,9.78
2023-04-25T14:14:43.052Z,9.86
2023-04-25T14:17:46.850Z,9.60
2023-04-25T14:20:50.226Z,9.58
2023-04-25T14:23:53.775Z,9.48
2023-04-25T14:26:57.792Z,8.93
2023-04-25T14:30:02.476Z,9.68
2023-04-25T14:33:06.230Z,9.45
2023-04-25T14:36:09.612Z,9.26
2023-04-25T14:39:13.493Z,9.31
2023-04-25T14:42:17.085Z,9.04
2023-04-25T14:45:21.974Z,9.19
2023-04-25T14:48:25.575Z,9.22
2023-04-25T14:51:28.961Z,8.95
2023-04-25T14:54:32.246Z,8.80
2023-04-25T14:57:35.996Z,9.22
2023-04-25T15:00:41.432Z,9.49
2023-04-25T15:03:44.904Z,9.40
2023-04-25T15:06:48.229Z,9.52
2023-04-25T15:09:53.957Z,9.45
2023-04-25T15:12:57.163Z,9.73
2023-04-25T15:16:01.974Z,9.21
2023-04-25T15:19:05.200Z,9.67
2023-04-25T15:22:08.546Z,9.51
2023-04-25T15:25:12.705Z,9.10
2023-04-25T15:28:16.774Z,9.36
2023-04-25T15:34:54.644Z,8.85
2023-04-25T15:37:57.740Z,9.07
2023-04-25T15:41:00.940Z,8.68
2023-04-25T15:44:04.268Z,8.90
2023-04-25T15:47:07.976Z,8.99
2023-04-25T15:50:17.200Z,8.95
2023-04-25T15:53:20.512Z,9.53
2023-04-25T15:56:24.079Z,9.36
2023-04-25T15:59:27.457Z,9.70
2023-04-25T16:02:31.805Z,9.06
2023-04-25T16:05:36.562Z,8.83
2023-04-25T16:08:39.996Z,9.18
2023-04-25T16:11:43.317Z,9.27
2023-04-25T16:14:46.512Z,9.19
2023-04-25T16:17:50.070Z,8.77
2023-04-25T16:20:54.844Z,9.20
2023-04-25T16:23:58.322Z,8.43
2023-04-25T16:27:02.904Z,8.86
2023-04-25T16:30:08.174Z,9.06
2023-04-25T16:33:11.898Z,8.98
2023-04-25T16:36:16.564Z,9.00
2023-04-25T16:39:21.999Z,8.79
2023-04-25T16:42:25.783Z,8.72
2023-04-25T16:45:28.966Z,9.00
2023-04-25T16:48:32.214Z,8.43
2023-04-25T16:51:37.077Z,9.17
2023-04-25T16:54:40.449Z,9.24
2023-04-25T16:57:43.668Z,9.06
2023-04-25T17:00:47.810Z,9.15
2023-04-25T17:03:51.896Z,9.15
2023-04-25T17:06:57.473Z,9.01
2023-04-25T17:10:01.170Z,8.78
2023-04-25T17:13:04.542Z,8.77
2023-04-25T17:16:10.851Z,8.73
2023-04-25T17:19:14.080Z,8.57
2023-04-25T17:22:18.626Z,8.44
2023-04-25T17:25:21.838Z,8.37
2023-04-25T17:28:25.031Z,8.54
2023-04-25T17:31:28.346Z,8.52
2023-04-25T17:34:31.868Z,8.30
2023-04-25T17:37:36.486Z,8.60
2023-04-25T17:40:39.971Z,8.37
2023-04-25T17:43:43.176Z,8.55
2023-04-25T17:46:46.420Z,8.45
2023-04-25T17:49:49.877Z,8.36
2023-04-25T17:52:57.130Z,8.29
2023-04-25T17:56:00.487Z,8.36
2023-04-25T17:59:04.653Z,8.23
2023-04-25T18:02:08.825Z,8.83
2023-04-25T18:05:12.282Z,8.19
2023-04-25T18:08:16.969Z,7.74
2023-04-25T18:11:20.645Z,8.22
2023-04-25T18:14:25.014Z,8.21
2023-04-25T18:17:28.411Z,8.00
2023-04-25T18:20:31.743Z,8.17
2023-04-25T18:23:37.770Z,8.14
2023-04-25T18:26:42.060Z,7.80
2023-04-25T18:29:45.543Z,8.30
2023-04-25T18:32:48.817Z,7.81
2023-04-25T18:42:07.090Z,7.98
2023-04-25T18:45:11.729Z,7.79
2023-04-25T18:48:15.024Z,7.88
2023-04-25T18:51:18.469Z,7.46
2023-04-25T18:54:23.008Z,7.87
2023-04-25T18:57:26.462Z,7.85
2023-04-25T19:00:29.734Z,7.57
2023-04-25T19:03:33.234Z,7.65
2023-04-25T19:06:36.821Z,7.87
2023-04-25T19:09:41.589Z,7.71
2023-04-25T19:12:44.742Z,7.93
2023-04-25T19:15:48.352Z,7.75
2023-04-25T19:18:52.813Z,7.63
2023-04-25T19:21:56.587Z,7.63
2023-04-25T19:25:09.872Z,7.78
2023-04-25T19:28:15.428Z,7.73
2023-04-25T19:31:19.030Z,7.54
2023-04-25T19:34:22.286Z,7.46
2023-04-25T19:37:25.472Z,7.39
2023-04-25T19:40:30.226Z,7.47
2023-04-25T19:43:33.523Z,7.43
2023-04-25T19:46:38.075Z,7.40
2023-04-25T19:49:42.164Z,7.47
2023-04-25T19:52:45.392Z,7.51
2023-04-25T19:55:49.921Z,7.08
2023-04-25T19:58:53.385Z,7.28
2023-04-25T20:01:57.273Z,6.97
2023-04-25T20:05:01.294Z,7.21
2023-04-25T20:08:04.715Z,7.12
2023-04-25T20:11:09.409Z,6.93
2023-04-25T20:14:12.736Z,7.18
2023-04-25T20:17:16.054Z,6.98
2023-04-25T20:20:19.308Z,7.35
2023-04-25T20:23:22.756Z,7.33
2023-04-25T20:26:27.248Z,7.19
2023-04-25T20:29:30.441Z,7.07
2023-04-25T20:32:34.250Z,7.04
2023-04-25T20:35:37.533Z,6.78
2023-04-25T20:38:40.686Z,6.88
2023-04-25T20:41:45.718Z,6.67
2023-04-25T20:44:49.119Z,6.04
2023-04-25T20:47:52.397Z,6.78
2023-04-25T20:50:56.360Z,6.19
2023-04-25T20:54:00.212Z,6.33
2023-04-25T20:57:04.800Z,6.21
2023-04-25T21:00:16.651Z,6.13
2023-04-25T21:03:20.794Z,6.06
2023-04-25T21:06:24.240Z,6.39
2023-04-25T21:09:27.545Z,6.55
2023-04-25T21:12:32.097Z,6.32
2023-04-25T21:15:35.635Z,6.41
2023-04-25T21:18:38.904Z,6.12
2023-04-25T21:21:42.623Z,6.46
2023-04-25T21:24:47.622Z,6.46
2023-04-25T21:27:53.700Z,5.90
2023-04-25T21:34:51.401Z,4.80
2023-04-25T21:37:54.690Z,4.15
2023-04-25T21:40:58.076Z,3.76
2023-04-25T21:44:01.377Z,5.72
2023-04-25T21:47:05.531Z,4.72
2023-04-25T21:50:12.334Z,4.58
2023-04-25T21:53:15.866Z,5.59
2023-04-25T21:56:19.105Z,3.88
2023-04-25T21:59:24.950Z,3.65
2023-04-25T22:02:29.713Z,4.21
2023-04-25T22:05:35.027Z,5.53
2023-04-25T22:08:38.449Z,3.78
2023-04-25T22:11:43.013Z,4.10
2023-04-25T22:14:46.655Z,4.06
2023-04-25T22:17:52.258Z,4.09
2023-04-25T22:20:57.393Z,4.42
2023-04-25T22:24:00.676Z,6.11
2023-04-25T22:27:03.981Z,4.98
2023-04-25T22:30:09.328Z,3.79
2023-04-25T22:33:14.705Z,5.39
2023-04-25T22:36:19.612Z,3.88
2023-04-25T22:39:23.460Z,3.99
2023-04-25T22:42:26.842Z,5.04
2023-04-25T22:45:30.189Z,4.16
2023-04-25T22:48:33.677Z,4.65
2023-04-25T22:51:38.785Z,2.95
2023-04-25T22:54:42.304Z,4.29
2023-04-25T22:57:45.615Z,4.77
2023-04-25T23:00:50.911Z,4.29
2023-04-25T23:03:54.533Z,3.09
2023-04-25T23:07:00.200Z,3.04
2023-04-25T23:10:03.519Z,3.29
2023-04-25T23:13:06.812Z,3.59
2023-04-25T23:16:11.608Z,2.75
2023-04-25T23:19:14.863Z,2.86
2023-04-25T23:22:19.444Z,3.07
2023-04-25T23:25:23.191Z,2.14
2023-04-25T23:28:26.526Z,4.37
2023-04-25T23:31:30.260Z,2.18
2023-04-25T23:34:33.772Z,4.46
2023-04-25T23:37:39.412Z,4.55
2023-04-25T23:40:43.321Z,2.56
2023-04-25T23:43:46.588Z,3.44
2023-04-25T23:46:50.270Z,2.62
2023-04-25T23:49:53.903Z,4.06
2023-04-25T23:52:58.660Z,2.07
2023-04-25T23:56:01.914Z,2.06
2023-04-25T23:59:05.616Z,2.06
